sensor_id;sensor_type;location;lat;lon;timestamp;pressure;altitude;pressure_sealevel;temperature;humidity
47082;BME280;33066;49.296;14.470;2023-03-22T00:00:48;96773.85;;;16.66;35.56
47082;BME280;33066;49.296;14.470;2023-03-22T00:03:13;96773.37;;;16.69;35.52
47082;BME280;33066;49.296;14.470;2023-03-22T00:05:39;96774.09;;;16.83;35.50
47082;BME280;33066;49.296;14.470;2023-03-22T00:08:04;96772.96;;;16.56;35.59
47082;BME280;33066;49.296;14.470;2023-03-22T00:10:30;96773.02;;;16.76;35.76
47082;BME280;33066;49.296;14.470;2023-03-22T00:12:55;96770.35;;;16.75;35.74
47082;BME280;33066;49.296;14.470;2023-03-22T00:15:21;96768.85;;;16.55;35.64
47082;BME280;33066;49.296;14.470;2023-03-22T00:17:46;96766.80;;;17.04;35.69
47082;BME280;33066;49.296;14.470;2023-03-22T00:20:11;96766.43;;;16.51;35.80
47082;BME280;33066;49.296;14.470;2023-03-22T00:22:36;96764.69;;;16.59;35.83
47082;BME280;33066;49.296;14.470;2023-03-22T00:25:02;96764.61;;;16.53;35.89
47082;BME280;33066;49.296;14.470;2023-03-22T00:27:27;96765.61;;;16.44;36.14
47082;BME280;33066;49.296;14.470;2023-03-22T00:29:54;96766.37;;;16.60;36.17
47082;BME280;33066;49.296;14.470;2023-03-22T00:32:19;96767.00;;;16.56;36.34
47082;BME280;33066;49.296;14.470;2023-03-22T00:34:44;96769.54;;;16.52;36.31
47082;BME280;33066;49.296;14.470;2023-03-22T00:37:10;96767.23;;;16.50;36.28
47082;BME280;33066;49.296;14.470;2023-03-22T00:39:36;96763.95;;;16.54;36.19
47082;BME280;33066;49.296;14.470;2023-03-22T00:42:03;96761.37;;;16.37;36.31
47082;BME280;33066;49.296;14.470;2023-03-22T00:44:27;96762.01;;;16.57;36.41
47082;BME280;33066;49.296;14.470;2023-03-22T00:46:53;96760.61;;;16.40;36.43
47082;BME280;33066;49.296;14.470;2023-03-22T00:49:18;96759.40;;;16.54;36.67
47082;BME280;33066;49.296;14.470;2023-03-22T00:51:44;96758.36;;;16.52;36.82
47082;BME280;33066;49.296;14.470;2023-03-22T00:54:09;96756.57;;;16.66;36.92
47082;BME280;33066;49.296;14.470;2023-03-22T00:56:35;96753.89;;;16.43;37.08
47082;BME280;33066;49.296;14.470;2023-03-22T00:59:01;96754.45;;;16.23;36.99
47082;BME280;33066;49.296;14.470;2023-03-22T01:01:26;96751.48;;;16.29;36.77
47082;BME280;33066;49.296;14.470;2023-03-22T01:03:51;96749.16;;;16.51;37.13
47082;BME280;33066;49.296;14.470;2023-03-22T01:06:17;96746.17;;;16.68;37.08
47082;BME280;33066;49.296;14.470;2023-03-22T01:08:42;96743.55;;;16.40;36.93
47082;BME280;33066;49.296;14.470;2023-03-22T01:11:08;96740.44;;;16.43;36.97
47082;BME280;33066;49.296;14.470;2023-03-22T01:13:33;96735.27;;;16.37;37.01
47082;BME280;33066;49.296;14.470;2023-03-22T01:15:58;96735.22;;;16.37;37.10
47082;BME280;33066;49.296;14.470;2023-03-22T01:18:24;96737.30;;;16.36;37.21
47082;BME280;33066;49.296;14.470;2023-03-22T01:20:50;96738.37;;;16.33;37.06
47082;BME280;33066;49.296;14.470;2023-03-22T01:23:15;96734.84;;;16.56;36.83
47082;BME280;33066;49.296;14.470;2023-03-22T01:25:41;96728.18;;;16.34;36.85
47082;BME280;33066;49.296;14.470;2023-03-22T01:28:06;96729.45;;;16.51;37.01
47082;BME280;33066;49.296;14.470;2023-03-22T01:30:32;96724.26;;;16.31;37.04
47082;BME280;33066;49.296;14.470;2023-03-22T01:32:58;96719.20;;;16.29;37.18
47082;BME280;33066;49.296;14.470;2023-03-22T01:35:23;96718.83;;;16.28;37.39
47082;BME280;33066;49.296;14.470;2023-03-22T01:37:49;96720.24;;;16.41;37.59
47082;BME280;33066;49.296;14.470;2023-03-22T01:40:14;96721.56;;;16.45;37.51
47082;BME280;33066;49.296;14.470;2023-03-22T01:42:39;96724.96;;;16.21;37.35
47082;BME280;33066;49.296;14.470;2023-03-22T01:45:21;96726.33;;;16.49;37.20
47082;BME280;33066;49.296;14.470;2023-03-22T01:47:31;96724.30;;;16.38;36.43
47082;BME280;33066;49.296;14.470;2023-03-22T01:49:55;96722.59;;;16.48;36.16
47082;BME280;33066;49.296;14.470;2023-03-22T01:52:21;96722.25;;;16.79;36.42
47082;BME280;33066;49.296;14.470;2023-03-22T01:54:49;96722.93;;;16.46;36.75
47082;BME280;33066;49.296;14.470;2023-03-22T01:57:12;96721.48;;;16.65;37.02
47082;BME280;33066;49.296;14.470;2023-03-22T01:59:38;96722.86;;;16.35;36.98
47082;BME280;33066;49.296;14.470;2023-03-22T02:02:03;96723.81;;;16.07;36.77
47082;BME280;33066;49.296;14.470;2023-03-22T02:04:31;96725.74;;;16.21;36.90
47082;BME280;33066;49.296;14.470;2023-03-22T02:06:53;96722.99;;;16.45;36.72
47082;BME280;33066;49.296;14.470;2023-03-22T02:09:19;96724.53;;;16.43;37.00
47082;BME280;33066;49.296;14.470;2023-03-22T02:11:50;96724.73;;;16.45;36.89
47082;BME280;33066;49.296;14.470;2023-03-22T02:14:22;96724.47;;;16.27;37.05
47082;BME280;33066;49.296;14.470;2023-03-22T02:16:43;96726.29;;;16.48;37.29
47082;BME280;33066;49.296;14.470;2023-03-22T02:19:16;96727.76;;;16.56;37.33
47082;BME280;33066;49.296;14.470;2023-03-22T02:21:46;96728.04;;;16.33;37.20
47082;BME280;33066;49.296;14.470;2023-03-22T02:26:34;96725.44;;;16.47;37.20
47082;BME280;33066;49.296;14.470;2023-03-22T02:28:47;96725.91;;;16.34;37.25
47082;BME280;33066;49.296;14.470;2023-03-22T02:31:25;96725.88;;;16.47;37.43
47082;BME280;33066;49.296;14.470;2023-03-22T02:33:44;96723.75;;;16.36;37.46
47082;BME280;33066;49.296;14.470;2023-03-22T02:40:51;96715.63;;;16.48;37.73
47082;BME280;33066;49.296;14.470;2023-03-22T02:43:18;96712.72;;;16.42;37.69
47082;BME280;33066;49.296;14.470;2023-03-22T02:45:45;96707.25;;;16.44;37.77
47082;BME280;33066;49.296;14.470;2023-03-22T02:48:10;96703.48;;;16.20;37.79
47082;BME280;33066;49.296;14.470;2023-03-22T02:50:36;96700.29;;;16.42;37.82
47082;BME280;33066;49.296;14.470;2023-03-22T02:53:02;96704.88;;;16.45;37.72
47082;BME280;33066;49.296;14.470;2023-03-22T02:55:27;96709.40;;;16.12;37.83
47082;BME280;33066;49.296;14.470;2023-03-22T02:57:52;96707.68;;;16.40;37.61
47082;BME280;33066;49.296;14.470;2023-03-22T03:00:15;96700.81;;;16.10;37.54
47082;BME280;33066;49.296;14.470;2023-03-22T03:02:42;96700.87;;;16.40;37.47
47082;BME280;33066;49.296;14.470;2023-03-22T03:05:07;96704.51;;;16.08;37.50
47082;BME280;33066;49.296;14.470;2023-03-22T03:07:30;96705.90;;;16.14;37.40
47082;BME280;33066;49.296;14.470;2023-03-22T03:09:56;96707.79;;;16.06;37.38
47082;BME280;33066;49.296;14.470;2023-03-22T03:12:23;96710.13;;;16.08;37.22
47082;BME280;33066;49.296;14.470;2023-03-22T03:14:46;96711.43;;;16.34;37.00
47082;BME280;33066;49.296;14.470;2023-03-22T03:17:21;96708.96;;;16.38;36.81
47082;BME280;33066;49.296;14.470;2023-03-22T03:19:41;96714.34;;;16.38;36.72
47082;BME280;33066;49.296;14.470;2023-03-22T03:22:11;96717.17;;;16.43;36.76
47082;BME280;33066;49.296;14.470;2023-03-22T03:24:34;96715.18;;;16.41;36.87
47082;BME280;33066;49.296;14.470;2023-03-22T03:26:59;96716.15;;;16.39;37.00
47082;BME280;33066;49.296;14.470;2023-03-22T03:29:28;96719.82;;;16.48;37.07
47082;BME280;33066;49.296;14.470;2023-03-22T03:31:51;96719.74;;;16.24;37.08
47082;BME280;33066;49.296;14.470;2023-03-22T03:34:15;96717.43;;;16.28;37.07
47082;BME280;33066;49.296;14.470;2023-03-22T03:36:41;96718.01;;;16.50;37.15
47082;BME280;33066;49.296;14.470;2023-03-22T03:39:02;96715.92;;;16.44;37.30
47082;BME280;33066;49.296;14.470;2023-03-22T03:41:28;96715.99;;;16.24;37.39
47082;BME280;33066;49.296;14.470;2023-03-22T03:43:53;96716.28;;;16.21;37.46
47082;BME280;33066;49.296;14.470;2023-03-22T03:46:19;96717.56;;;16.39;37.51
47082;BME280;33066;49.296;14.470;2023-03-22T03:48:46;96717.02;;;16.32;37.68
47082;BME280;33066;49.296;14.470;2023-03-22T03:51:08;96714.37;;;16.09;37.62
47082;BME280;33066;49.296;14.470;2023-03-22T03:53:34;96717.62;;;16.38;37.82
47082;BME280;33066;49.296;14.470;2023-03-22T03:56:00;96719.37;;;16.08;37.90
47082;BME280;33066;49.296;14.470;2023-03-22T03:58:26;96721.56;;;16.02;37.99
47082;BME280;33066;49.296;14.470;2023-03-22T04:00:51;96725.48;;;16.10;37.96
47082;BME280;33066;49.296;14.470;2023-03-22T04:03:16;96721.43;;;16.06;37.90
47082;BME280;33066;49.296;14.470;2023-03-22T04:05:42;96728.41;;;16.13;37.79
47082;BME280;33066;49.296;14.470;2023-03-22T04:08:07;96728.97;;;16.13;37.77
47082;BME280;33066;49.296;14.470;2023-03-22T04:13:00;96723.96;;;16.31;37.25
47082;BME280;33066;49.296;14.470;2023-03-22T04:15:25;96719.63;;;16.36;37.39
47082;BME280;33066;49.296;14.470;2023-03-22T04:17:51;96718.53;;;16.35;37.39
47082;BME280;33066;49.296;14.470;2023-03-22T04:20:17;96715.26;;;16.18;37.18
47082;BME280;33066;49.296;14.470;2023-03-22T04:22:42;96713.07;;;16.43;37.10
47082;BME280;33066;49.296;14.470;2023-03-22T04:25:10;96712.97;;;16.30;37.17
47082;BME280;33066;49.296;14.470;2023-03-22T04:27:32;96714.49;;;16.26;37.24
47082;BME280;33066;49.296;14.470;2023-03-22T04:29:58;96716.07;;;16.01;37.26
47082;BME280;33066;49.296;14.470;2023-03-22T04:32:24;96715.34;;;16.15;37.39
47082;BME280;33066;49.296;14.470;2023-03-22T04:34:50;96715.88;;;16.03;37.57
47082;BME280;33066;49.296;14.470;2023-03-22T04:37:16;96713.21;;;16.01;37.58
47082;BME280;33066;49.296;14.470;2023-03-22T04:39:42;96712.25;;;15.82;37.80
47082;BME280;33066;49.296;14.470;2023-03-22T04:42:06;96710.69;;;15.65;37.92
47082;BME280;33066;49.296;14.470;2023-03-22T04:44:31;96712.28;;;15.48;38.06
47082;BME280;33066;49.296;14.470;2023-03-22T04:46:57;96717.21;;;15.36;38.25
47082;BME280;33066;49.296;14.470;2023-03-22T04:49:23;96721.57;;;15.37;38.21
47082;BME280;33066;49.296;14.470;2023-03-22T04:51:48;96720.52;;;15.46;38.09
47082;BME280;33066;49.296;14.470;2023-03-22T04:54:13;96720.43;;;15.49;37.97
47082;BME280;33066;49.296;14.470;2023-03-22T04:56:39;96721.38;;;15.37;38.07
47082;BME280;33066;49.296;14.470;2023-03-22T04:59:04;96722.42;;;15.28;38.09
47082;BME280;33066;49.296;14.470;2023-03-22T05:01:30;96725.16;;;15.64;38.26
47082;BME280;33066;49.296;14.470;2023-03-22T05:03:55;96725.00;;;15.12;38.32
47082;BME280;33066;49.296;14.470;2023-03-22T05:06:20;96722.45;;;15.00;38.52
47082;BME280;33066;49.296;14.470;2023-03-22T05:08:46;96726.27;;;15.01;38.57
47082;BME280;33066;49.296;14.470;2023-03-22T05:11:13;96731.17;;;14.94;38.63
47082;BME280;33066;49.296;14.470;2023-03-22T05:13:37;96735.84;;;14.99;39.08
47082;BME280;33066;49.296;14.470;2023-03-22T05:16:03;96736.95;;;15.05;38.92
47082;BME280;33066;49.296;14.470;2023-03-22T05:18:28;96738.68;;;15.33;38.43
47082;BME280;33066;49.296;14.470;2023-03-22T05:20:54;96737.74;;;15.05;38.23
47082;BME280;33066;49.296;14.470;2023-03-22T05:23:19;96739.01;;;15.24;37.96
47082;BME280;33066;49.296;14.470;2023-03-22T05:25:45;96741.75;;;15.42;38.01
47082;BME280;33066;49.296;14.470;2023-03-22T05:28:09;96740.78;;;15.35;37.91
47082;BME280;33066;49.296;14.470;2023-03-22T05:30:34;96739.79;;;15.32;37.98
47082;BME280;33066;49.296;14.470;2023-03-22T05:33:02;96736.21;;;15.09;37.87
47082;BME280;33066;49.296;14.470;2023-03-22T05:35:25;96737.68;;;15.24;37.76
47082;BME280;33066;49.296;14.470;2023-03-22T05:37:51;96737.15;;;15.20;37.83
47082;BME280;33066;49.296;14.470;2023-03-22T05:40:16;96732.04;;;15.25;37.61
47082;BME280;33066;49.296;14.470;2023-03-22T05:42:42;96728.36;;;15.07;37.55
47082;BME280;33066;49.296;14.470;2023-03-22T05:45:09;96729.15;;;15.50;37.66
47082;BME280;33066;49.296;14.470;2023-03-22T05:47:33;96732.41;;;15.16;38.06
47082;BME280;33066;49.296;14.470;2023-03-22T05:49:58;96730.49;;;15.33;38.41
47082;BME280;33066;49.296;14.470;2023-03-22T05:52:24;96730.77;;;15.36;38.12
47082;BME280;33066;49.296;14.470;2023-03-22T05:54:49;96732.91;;;15.28;37.73
47082;BME280;33066;49.296;14.470;2023-03-22T05:57:14;96732.85;;;15.45;37.75
47082;BME280;33066;49.296;14.470;2023-03-22T05:59:39;96730.80;;;15.59;37.37
47082;BME280;33066;49.296;14.470;2023-03-22T06:02:05;96721.77;;;15.68;37.15
47082;BME280;33066;49.296;14.470;2023-03-22T06:04:30;96723.98;;;15.82;37.02
47082;BME280;33066;49.296;14.470;2023-03-22T06:06:56;96724.61;;;15.68;36.93
47082;BME280;33066;49.296;14.470;2023-03-22T06:09:21;96722.63;;;16.03;36.78
47082;BME280;33066;49.296;14.470;2023-03-22T06:11:47;96722.95;;;16.24;36.56
47082;BME280;33066;49.296;14.470;2023-03-22T06:14:12;96719.68;;;16.43;36.25
47082;BME280;33066;49.296;14.470;2023-03-22T06:16:38;96721.74;;;16.52;35.84
47082;BME280;33066;49.296;14.470;2023-03-22T06:19:04;96723.56;;;16.20;35.73
47082;BME280;33066;49.296;14.470;2023-03-22T06:21:29;96725.67;;;16.52;35.62
47082;BME280;33066;49.296;14.470;2023-03-22T06:23:55;96725.18;;;16.57;35.57
47082;BME280;33066;49.296;14.470;2023-03-22T06:26:20;96726.14;;;16.92;35.47
47082;BME280;33066;49.296;14.470;2023-03-22T06:28:46;96724.84;;;16.72;35.50
47082;BME280;33066;49.296;14.470;2023-03-22T06:31:12;96723.49;;;16.54;35.52
47082;BME280;33066;49.296;14.470;2023-03-22T06:33:37;96721.88;;;16.71;35.63
47082;BME280;33066;49.296;14.470;2023-03-22T06:36:04;96722.27;;;16.68;35.80
47082;BME280;33066;49.296;14.470;2023-03-22T06:38:29;96719.80;;;16.43;35.84
47082;BME280;33066;49.296;14.470;2023-03-22T06:40:55;96714.08;;;15.96;35.91
47082;BME280;33066;49.296;14.470;2023-03-22T06:43:20;96719.79;;;16.80;35.43
47082;BME280;33066;49.296;14.470;2023-03-22T06:45:46;96723.35;;;17.04;35.47
47082;BME280;33066;49.296;14.470;2023-03-22T06:48:11;96725.06;;;16.78;35.56
47082;BME280;33066;49.296;14.470;2023-03-22T06:50:37;96724.97;;;17.06;35.53
47082;BME280;33066;49.296;14.470;2023-03-22T06:53:02;96724.36;;;17.16;35.58
47082;BME280;33066;49.296;14.470;2023-03-22T06:55:28;96724.73;;;17.06;35.41
47082;BME280;33066;49.296;14.470;2023-03-22T06:57:53;96725.33;;;17.11;35.18
47082;BME280;33066;49.296;14.470;2023-03-22T07:00:19;96718.44;;;17.20;35.20
47082;BME280;33066;49.296;14.470;2023-03-22T07:02:44;96718.84;;;17.26;35.55
47082;BME280;33066;49.296;14.470;2023-03-22T07:05:10;96717.28;;;17.35;35.57
47082;BME280;33066;49.296;14.470;2023-03-22T07:07:36;96718.68;;;17.67;35.56
47082;BME280;33066;49.296;14.470;2023-03-22T07:10:01;96718.46;;;17.29;35.53
47082;BME280;33066;49.296;14.470;2023-03-22T07:12:26;96722.65;;;17.17;35.32
47082;BME280;33066;49.296;14.470;2023-03-22T07:14:52;96727.06;;;17.50;34.97
47082;BME280;33066;49.296;14.470;2023-03-22T07:17:18;96727.60;;;17.55;34.91
47082;BME280;33066;49.296;14.470;2023-03-22T07:19:43;96728.38;;;17.56;34.96
47082;BME280;33066;49.296;14.470;2023-03-22T07:22:08;96727.01;;;17.64;34.80
47082;BME280;33066;49.296;14.470;2023-03-22T07:24:33;96731.83;;;17.75;34.73
47082;BME280;33066;49.296;14.470;2023-03-22T07:26:59;96729.39;;;18.07;34.51
47082;BME280;33066;49.296;14.470;2023-03-22T07:29:25;96728.43;;;17.92;34.79
47082;BME280;33066;49.296;14.470;2023-03-22T07:31:50;96728.50;;;17.81;34.66
47082;BME280;33066;49.296;14.470;2023-03-22T07:34:15;96728.32;;;17.90;34.55
47082;BME280;33066;49.296;14.470;2023-03-22T07:36:41;96726.53;;;18.17;34.33
47082;BME280;33066;49.296;14.470;2023-03-22T07:39:06;96724.77;;;18.17;34.61
47082;BME280;33066;49.296;14.470;2023-03-22T07:41:32;96723.62;;;17.95;34.33
47082;BME280;33066;49.296;14.470;2023-03-22T07:43:57;96720.77;;;18.26;34.10
47082;BME280;33066;49.296;14.470;2023-03-22T07:46:23;96724.31;;;18.08;34.15
47082;BME280;33066;49.296;14.470;2023-03-22T07:48:49;96725.16;;;18.16;33.97
47082;BME280;33066;49.296;14.470;2023-03-22T07:51:14;96723.65;;;18.26;33.71
47082;BME280;33066;49.296;14.470;2023-03-22T07:53:40;96717.70;;;18.39;33.51
47082;BME280;33066;49.296;14.470;2023-03-22T07:56:06;96718.55;;;18.42;33.53
47082;BME280;33066;49.296;14.470;2023-03-22T07:58:31;96720.39;;;18.50;33.49
47082;BME280;33066;49.296;14.470;2023-03-22T08:00:56;96717.97;;;18.59;33.36
47082;BME280;33066;49.296;14.470;2023-03-22T08:03:22;96719.38;;;18.64;33.14
47082;BME280;33066;49.296;14.470;2023-03-22T08:05:47;96718.19;;;18.41;32.75
47082;BME280;33066;49.296;14.470;2023-03-22T08:08:13;96718.74;;;18.82;32.45
47082;BME280;33066;49.296;14.470;2023-03-22T08:10:39;96721.64;;;18.74;32.31
47082;BME280;33066;49.296;14.470;2023-03-22T08:13:04;96717.25;;;18.38;32.19
47082;BME280;33066;49.296;14.470;2023-03-22T08:15:29;96715.38;;;18.52;32.12
47082;BME280;33066;49.296;14.470;2023-03-22T08:17:56;96715.64;;;18.55;32.08
47082;BME280;33066;49.296;14.470;2023-03-22T08:20:20;96711.59;;;18.56;31.93
47082;BME280;33066;49.296;14.470;2023-03-22T08:22:46;96713.17;;;18.82;31.87
47082;BME280;33066;49.296;14.470;2023-03-22T08:25:11;96717.61;;;18.79;31.83
47082;BME280;33066;49.296;14.470;2023-03-22T08:27:37;96714.06;;;18.78;31.83
47082;BME280;33066;49.296;14.470;2023-03-22T08:30:03;96716.78;;;18.60;31.75
47082;BME280;33066;49.296;14.470;2023-03-22T08:32:28;96715.80;;;18.52;31.61
47082;BME280;33066;49.296;14.470;2023-03-22T08:34:53;96719.45;;;18.72;31.74
47082;BME280;33066;49.296;14.470;2023-03-22T08:37:19;96717.40;;;18.46;31.89
47082;BME280;33066;49.296;14.470;2023-03-22T08:39:45;96714.85;;;18.41;32.05
47082;BME280;33066;49.296;14.470;2023-03-22T08:42:11;96712.51;;;18.77;31.94
47082;BME280;33066;49.296;14.470;2023-03-22T08:44:36;96709.99;;;18.66;31.67
47082;BME280;33066;49.296;14.470;2023-03-22T08:47:01;96706.45;;;19.13;31.52
47082;BME280;33066;49.296;14.470;2023-03-22T08:49:27;96705.72;;;18.71;31.82
47082;BME280;33066;49.296;14.470;2023-03-22T08:51:52;96703.46;;;19.28;31.03
47082;BME280;33066;49.296;14.470;2023-03-22T08:54:18;96698.00;;;19.16;30.78
47082;BME280;33066;49.296;14.470;2023-03-22T08:56:43;96696.08;;;19.28;30.87
47082;BME280;33066;49.296;14.470;2023-03-22T08:59:09;96695.19;;;19.37;31.02
47082;BME280;33066;49.296;14.470;2023-03-22T09:01:35;96693.53;;;19.20;30.10
47082;BME280;33066;49.296;14.470;2023-03-22T09:04:00;96694.02;;;19.28;30.72
47082;BME280;33066;49.296;14.470;2023-03-22T09:06:25;96694.37;;;19.32;30.32
47082;BME280;33066;49.296;14.470;2023-03-22T09:08:50;96691.57;;;19.21;29.86
47082;BME280;33066;49.296;14.470;2023-03-22T09:11:15;96690.24;;;19.52;29.84
47082;BME280;33066;49.296;14.470;2023-03-22T09:13:40;96689.93;;;19.34;29.69
47082;BME280;33066;49.296;14.470;2023-03-22T09:16:06;96690.26;;;19.23;29.67
47082;BME280;33066;49.296;14.470;2023-03-22T09:18:30;96688.31;;;19.48;29.99
47082;BME280;33066;49.296;14.470;2023-03-22T09:20:56;96686.97;;;19.48;29.98
47082;BME280;33066;49.296;14.470;2023-03-22T09:23:22;96688.15;;;19.29;29.90
47082;BME280;33066;49.296;14.470;2023-03-22T09:25:48;96685.52;;;19.31;29.77
47082;BME280;33066;49.296;14.470;2023-03-22T09:28:13;96686.98;;;19.43;29.36
47082;BME280;33066;49.296;14.470;2023-03-22T09:30:38;96681.75;;;19.86;29.78
47082;BME280;33066;49.296;14.470;2023-03-22T09:33:04;96676.03;;;20.06;29.53
47082;BME280;33066;49.296;14.470;2023-03-22T09:35:29;96677.32;;;19.60;29.32
47082;BME280;33066;49.296;14.470;2023-03-22T09:37:54;96666.93;;;19.94;28.84
47082;BME280;33066;49.296;14.470;2023-03-22T09:40:20;96665.76;;;20.04;28.85
47082;BME280;33066;49.296;14.470;2023-03-22T09:42:46;96664.77;;;19.96;28.72
47082;BME280;33066;49.296;14.470;2023-03-22T09:45:15;96667.72;;;20.25;29.07
47082;BME280;33066;49.296;14.470;2023-03-22T09:47:39;96660.38;;;20.31;28.60
47082;BME280;33066;49.296;14.470;2023-03-22T09:50:06;96655.85;;;20.30;29.39
47082;BME280;33066;49.296;14.470;2023-03-22T09:52:27;96656.22;;;20.48;29.27
47082;BME280;33066;49.296;14.470;2023-03-22T09:54:53;96653.30;;;20.59;28.44
47082;BME280;33066;49.296;14.470;2023-03-22T09:57:24;96649.06;;;20.57;28.20
47082;BME280;33066;49.296;14.470;2023-03-22T09:59:50;96650.28;;;20.69;28.33
47082;BME280;33066;49.296;14.470;2023-03-22T10:02:19;96649.71;;;20.75;27.90
47082;BME280;33066;49.296;14.470;2023-03-22T10:04:43;96640.36;;;20.77;28.07
47082;BME280;33066;49.296;14.470;2023-03-22T10:07:05;96638.18;;;20.95;28.06
47082;BME280;33066;49.296;14.470;2023-03-22T10:09:28;96634.19;;;20.86;27.21
47082;BME280;33066;49.296;14.470;2023-03-22T10:11:54;96626.44;;;20.69;27.58
47082;BME280;33066;49.296;14.470;2023-03-22T10:14:23;96626.68;;;20.75;27.37
47082;BME280;33066;49.296;14.470;2023-03-22T10:16:41;96620.36;;;21.08;27.15
47082;BME280;33066;49.296;14.470;2023-03-22T10:19:12;96616.89;;;20.87;26.83
47082;BME280;33066;49.296;14.470;2023-03-22T10:21:32;96616.36;;;21.28;26.58
47082;BME280;33066;49.296;14.470;2023-03-22T10:23:59;96614.44;;;21.37;26.88
47082;BME280;33066;49.296;14.470;2023-03-22T10:26:25;96611.51;;;21.37;26.73
47082;BME280;33066;49.296;14.470;2023-03-22T10:28:54;96603.76;;;21.62;26.85
47082;BME280;33066;49.296;14.470;2023-03-22T10:31:15;96613.26;;;21.82;25.96
47082;BME280;33066;49.296;14.470;2023-03-22T10:33:41;96619.86;;;21.76;25.53
47082;BME280;33066;49.296;14.470;2023-03-22T10:36:11;96615.07;;;22.11;25.23
47082;BME280;33066;49.296;14.470;2023-03-22T10:38:30;96601.85;;;22.08;24.86
47082;BME280;33066;49.296;14.470;2023-03-22T10:40:57;96599.10;;;22.76;24.86
47082;BME280;33066;49.296;14.470;2023-03-22T10:43:22;96593.51;;;23.32;24.64
47082;BME280;33066;49.296;14.470;2023-03-22T10:45:46;96592.95;;;23.86;23.37
47082;BME280;33066;49.296;14.470;2023-03-22T10:48:15;96590.17;;;24.03;23.16
47082;BME280;33066;49.296;14.470;2023-03-22T10:50:38;96584.51;;;24.39;22.85
47082;BME280;33066;49.296;14.470;2023-03-22T10:53:06;96583.27;;;24.82;22.81
47082;BME280;33066;49.296;14.470;2023-03-22T10:55:26;96581.08;;;24.54;22.22
47082;BME280;33066;49.296;14.470;2023-03-22T10:57:59;96583.21;;;25.14;21.86
47082;BME280;33066;49.296;14.470;2023-03-22T11:00:20;96583.01;;;25.01;21.75
47082;BME280;33066;49.296;14.470;2023-03-22T11:02:47;96581.27;;;24.80;21.71
47082;BME280;33066;49.296;14.470;2023-03-22T11:05:18;96580.99;;;24.99;21.62
47082;BME280;33066;49.296;14.470;2023-03-22T11:07:35;96574.91;;;25.02;21.58
47082;BME280;33066;49.296;14.470;2023-03-22T11:10:11;96576.97;;;25.30;21.35
47082;BME280;33066;49.296;14.470;2023-03-22T11:12:23;96586.08;;;25.40;20.89
47082;BME280;33066;49.296;14.470;2023-03-22T11:14:50;96570.66;;;24.99;21.04
47082;BME280;33066;49.296;14.470;2023-03-22T11:17:17;96559.67;;;25.19;21.24
47082;BME280;33066;49.296;14.470;2023-03-22T11:19:41;96559.97;;;25.60;20.97
47082;BME280;33066;49.296;14.470;2023-03-22T11:22:20;96556.43;;;25.76;20.92
47082;BME280;33066;49.296;14.470;2023-03-22T11:24:32;96556.49;;;26.20;20.48
47082;BME280;33066;49.296;14.470;2023-03-22T11:27:03;96546.83;;;26.27;20.47
47082;BME280;33066;49.296;14.470;2023-03-22T11:29:21;96546.13;;;25.88;20.34
47082;BME280;33066;49.296;14.470;2023-03-22T11:31:51;96537.45;;;26.38;20.16
47082;BME280;33066;49.296;14.470;2023-03-22T11:34:16;96532.17;;;26.67;19.89
47082;BME280;33066;49.296;14.470;2023-03-22T11:36:43;96530.82;;;26.83;19.58
47082;BME280;33066;49.296;14.470;2023-03-22T11:39:06;96522.78;;;27.23;19.15
47082;BME280;33066;49.296;14.470;2023-03-22T11:41:33;96521.53;;;27.16;19.28
47082;BME280;33066;49.296;14.470;2023-03-22T11:43:57;96515.81;;;27.54;19.35
47082;BME280;33066;49.296;14.470;2023-03-22T11:46:21;96521.61;;;27.66;18.79
47082;BME280;33066;49.296;14.470;2023-03-22T11:48:49;96521.39;;;27.29;18.82
47082;BME280;33066;49.296;14.470;2023-03-22T11:51:14;96519.09;;;27.27;18.65
47082;BME280;33066;49.296;14.470;2023-03-22T11:53:40;96506.81;;;27.54;18.83
47082;BME280;33066;49.296;14.470;2023-03-22T11:56:05;96505.24;;;27.93;18.66
47082;BME280;33066;49.296;14.470;2023-03-22T11:58:47;96501.86;;;27.40;18.97
47082;BME280;33066;49.296;14.470;2023-03-22T12:00:59;96503.45;;;27.72;18.36
47082;BME280;33066;49.296;14.470;2023-03-22T12:03:25;96505.58;;;27.64;18.24
47082;BME280;33066;49.296;14.470;2023-03-22T12:05:48;96498.47;;;27.97;18.20
47082;BME280;33066;49.296;14.470;2023-03-22T12:08:20;96498.39;;;28.56;17.78
47082;BME280;33066;49.296;14.470;2023-03-22T12:10:40;96486.90;;;27.62;18.29
47082;BME280;33066;49.296;14.470;2023-03-22T12:13:09;96482.86;;;26.94;19.95
47082;BME280;33066;49.296;14.470;2023-03-22T12:15:33;96481.35;;;27.13;19.49
47082;BME280;33066;49.296;14.470;2023-03-22T12:18:00;96483.48;;;27.21;19.37
47082;BME280;33066;49.296;14.470;2023-03-22T12:20:31;96472.61;;;27.54;18.75
47082;BME280;33066;49.296;14.470;2023-03-22T12:22:51;96478.89;;;28.37;17.89
47082;BME280;33066;49.296;14.470;2023-03-22T12:25:15;96463.20;;;27.91;18.06
47082;BME280;33066;49.296;14.470;2023-03-22T12:27:41;96467.71;;;27.27;18.38
47082;BME280;33066;49.296;14.470;2023-03-22T12:30:10;96468.45;;;27.72;18.00
47082;BME280;33066;49.296;14.470;2023-03-22T12:32:34;96464.07;;;28.01;17.64
47082;BME280;33066;49.296;14.470;2023-03-22T12:34:57;96470.82;;;28.75;16.87
47082;BME280;33066;49.296;14.470;2023-03-22T12:37:26;96465.73;;;28.18;17.32
47082;BME280;33066;49.296;14.470;2023-03-22T12:39:52;96467.93;;;28.19;16.73
47082;BME280;33066;49.296;14.470;2023-03-22T12:42:20;96468.29;;;28.44;16.80
47082;BME280;33066;49.296;14.470;2023-03-22T12:44:42;96463.88;;;29.02;16.63
47082;BME280;33066;49.296;14.470;2023-03-22T12:47:12;96462.08;;;29.30;15.86
47082;BME280;33066;49.296;14.470;2023-03-22T12:49:37;96460.97;;;29.02;15.85